sensor_id;sensor_type;location;lat;lon;timestamp;temperature;humidity
10802;DHT22;5453;50.852;7.102;2023-08-20T00:00:11;22.70;99.90
10802;DHT22;5453;50.852;7.102;2023-08-20T00:02:51;22.70;99.90
10802;DHT22;5453;50.852;7.102;2023-08-20T00:05:27;22.70;99.90
10802;DHT22;5453;50.852;7.102;2023-08-20T00:08:00;22.70;99.90
10802;DHT22;5453;50.852;7.102;2023-08-20T00:10:33;22.70;99.90
10802;DHT22;5453;50.852;7.102;2023-08-20T00:13:07;22.70;99.90
10802;DHT22;5453;50.852;7.102;2023-08-20T00:15:40;22.70;99.90
10802;DHT22;5453;50.852;7.102;2023-08-20T00:18:13;22.70;99.90
10802;DHT22;5453;50.852;7.102;2023-08-20T00:20:47;22.70;99.90
10802;DHT22;5453;50.852;7.102;2023-08-20T00:23:20;22.70;99.90
10802;DHT22;5453;50.852;7.102;2023-08-20T00:25:53;22.70;99.90
10802;DHT22;5453;50.852;7.102;2023-08-20T00:28:27;22.60;99.90
10802;DHT22;5453;50.852;7.102;2023-08-20T00:31:03;22.60;99.90
10802;DHT22;5453;50.852;7.102;2023-08-20T00:33:35;22.60;99.90
10802;DHT22;5453;50.852;7.102;2023-08-20T00:36:07;22.50;99.90
10802;DHT22;5453;50.852;7.102;2023-08-20T00:38:40;22.50;99.90
10802;DHT22;5453;50.852;7.102;2023-08-20T00:41:12;22.40;99.90
10802;DHT22;5453;50.852;7.102;2023-08-20T00:43:46;22.40;99.90
10802;DHT22;5453;50.852;7.102;2023-08-20T00:46:18;22.40;99.90
10802;DHT22;5453;50.852;7.102;2023-08-20T00:48:51;22.40;99.90
10802;DHT22;5453;50.852;7.102;2023-08-20T00:51:23;22.40;99.90
10802;DHT22;5453;50.852;7.102;2023-08-20T00:53:56;22.30;99.90
10802;DHT22;5453;50.852;7.102;2023-08-20T00:56:29;22.30;99.90
10802;DHT22;5453;50.852;7.102;2023-08-20T00:59:04;22.30;99.90
10802;DHT22;5453;50.852;7.102;2023-08-20T01:01:37;22.30;99.90
10802;DHT22;5453;50.852;7.102;2023-08-20T01:04:10;22.30;99.90
10802;DHT22;5453;50.852;7.102;2023-08-20T01:06:51;22.30;99.90
10802;DHT22;5453;50.852;7.102;2023-08-20T01:09:34;22.30;99.90
10802;DHT22;5453;50.852;7.102;2023-08-20T01:12:10;22.20;99.90
10802;DHT22;5453;50.852;7.102;2023-08-20T01:14:44;22.20;99.90
10802;DHT22;5453;50.852;7.102;2023-08-20T01:17:20;22.20;99.90
10802;DHT22;5453;50.852;7.102;2023-08-20T01:19:52;22.20;99.90
10802;DHT22;5453;50.852;7.102;2023-08-20T01:22:45;22.20;99.90
10802;DHT22;5453;50.852;7.102;2023-08-20T01:25:36;22.10;99.90
10802;DHT22;5453;50.852;7.102;2023-08-20T01:28:25;22.10;99.90
10802;DHT22;5453;50.852;7.102;2023-08-20T01:30:58;22.10;99.90
10802;DHT22;5453;50.852;7.102;2023-08-20T01:33:32;22.10;99.90
10802;DHT22;5453;50.852;7.102;2023-08-20T01:36:07;22.10;99.90
10802;DHT22;5453;50.852;7.102;2023-08-20T01:38:41;22.10;99.90
10802;DHT22;5453;50.852;7.102;2023-08-20T01:41:13;22.00;99.90
10802;DHT22;5453;50.852;7.102;2023-08-20T01:43:47;22.00;99.90
10802;DHT22;5453;50.852;7.102;2023-08-20T01:46:19;22.00;99.90
10802;DHT22;5453;50.852;7.102;2023-08-20T01:48:55;22.00;99.90
10802;DHT22;5453;50.852;7.102;2023-08-20T01:51:28;22.00;99.90
10802;DHT22;5453;50.852;7.102;2023-08-20T01:54:00;21.90;99.90
10802;DHT22;5453;50.852;7.102;2023-08-20T01:56:33;21.90;99.90
10802;DHT22;5453;50.852;7.102;2023-08-20T01:59:06;21.90;99.90
10802;DHT22;5453;50.852;7.102;2023-08-20T02:01:39;21.90;99.90
10802;DHT22;5453;50.852;7.102;2023-08-20T02:04:11;21.80;99.90
10802;DHT22;5453;50.852;7.102;2023-08-20T02:06:43;21.80;99.90
10802;DHT22;5453;50.852;7.102;2023-08-20T02:09:20;21.80;99.90
10802;DHT22;5453;50.852;7.102;2023-08-20T02:11:55;21.80;99.90
10802;DHT22;5453;50.852;7.102;2023-08-20T02:14:28;21.80;99.90
10802;DHT22;5453;50.852;7.102;2023-08-20T02:17:07;21.70;99.90
10802;DHT22;5453;50.852;7.102;2023-08-20T02:19:39;21.70;99.90
10802;DHT22;5453;50.852;7.102;2023-08-20T02:22:12;21.70;99.90
10802;DHT22;5453;50.852;7.102;2023-08-20T02:24:44;21.60;99.90
10802;DHT22;5453;50.852;7.102;2023-08-20T02:27:16;21.60;99.90
10802;DHT22;5453;50.852;7.102;2023-08-20T02:29:50;21.60;99.90
10802;DHT22;5453;50.852;7.102;2023-08-20T02:32:23;21.50;99.90
10802;DHT22;5453;50.852;7.102;2023-08-20T02:34:55;21.50;99.90
10802;DHT22;5453;50.852;7.102;2023-08-20T02:37:30;21.50;99.90
10802;DHT22;5453;50.852;7.102;2023-08-20T02:40:03;21.40;99.90
10802;DHT22;5453;50.852;7.102;2023-08-20T02:42:37;21.40;99.90
10802;DHT22;5453;50.852;7.102;2023-08-20T02:45:11;21.40;99.90
10802;DHT22;5453;50.852;7.102;2023-08-20T02:47:43;21.30;99.90
10802;DHT22;5453;50.852;7.102;2023-08-20T02:50:16;21.30;99.90
10802;DHT22;5453;50.852;7.102;2023-08-20T02:52:48;21.30;99.90
10802;DHT22;5453;50.852;7.102;2023-08-20T02:55:21;21.30;99.90
10802;DHT22;5453;50.852;7.102;2023-08-20T02:57:53;21.30;99.90
10802;DHT22;5453;50.852;7.102;2023-08-20T03:00:27;21.20;99.90
10802;DHT22;5453;50.852;7.102;2023-08-20T03:03:00;21.30;99.90
10802;DHT22;5453;50.852;7.102;2023-08-20T03:05:35;21.20;99.90
10802;DHT22;5453;50.852;7.102;2023-08-20T03:08:07;21.20;99.90
10802;DHT22;5453;50.852;7.102;2023-08-20T03:10:40;21.20;99.90
10802;DHT22;5453;50.852;7.102;2023-08-20T03:13:13;21.20;99.90
10802;DHT22;5453;50.852;7.102;2023-08-20T03:15:47;21.20;99.90
10802;DHT22;5453;50.852;7.102;2023-08-20T03:18:19;21.20;99.90
10802;DHT22;5453;50.852;7.102;2023-08-20T03:20:52;21.20;99.90
10802;DHT22;5453;50.852;7.102;2023-08-20T03:23:26;21.20;99.90
10802;DHT22;5453;50.852;7.102;2023-08-20T03:25:59;21.20;99.90
10802;DHT22;5453;50.852;7.102;2023-08-20T03:28:31;21.20;99.90
10802;DHT22;5453;50.852;7.102;2023-08-20T03:31:05;21.20;99.90
10802;DHT22;5453;50.852;7.102;2023-08-20T03:33:42;21.20;99.90
10802;DHT22;5453;50.852;7.102;2023-08-20T03:36:15;21.20;99.90
10802;DHT22;5453;50.852;7.102;2023-08-20T03:38:47;21.20;99.90
10802;DHT22;5453;50.852;7.102;2023-08-20T03:41:23;21.20;99.90
10802;DHT22;5453;50.852;7.102;2023-08-20T03:43:55;21.20;99.90
10802;DHT22;5453;50.852;7.102;2023-08-20T03:46:29;21.20;99.90
10802;DHT22;5453;50.852;7.102;2023-08-20T03:49:02;21.20;99.90
10802;DHT22;5453;50.852;7.102;2023-08-20T03:51:35;21.20;99.90
10802;DHT22;5453;50.852;7.102;2023-08-20T03:54:07;21.20;99.90
10802;DHT22;5453;50.852;7.102;2023-08-20T03:56:40;21.20;99.90
10802;DHT22;5453;50.852;7.102;2023-08-20T03:59:15;21.20;99.90
10802;DHT22;5453;50.852;7.102;2023-08-20T04:01:49;21.30;99.90
10802;DHT22;5453;50.852;7.102;2023-08-20T04:04:21;21.30;99.90
10802;DHT22;5453;50.852;7.102;2023-08-20T04:06:53;21.30;99.90
10802;DHT22;5453;50.852;7.102;2023-08-20T04:09:26;21.30;99.90
10802;DHT22;5453;50.852;7.102;2023-08-20T04:11:58;21.30;99.90
10802;DHT22;5453;50.852;7.102;2023-08-20T04:14:30;21.20;99.90
10802;DHT22;5453;50.852;7.102;2023-08-20T04:17:04;21.30;99.90
10802;DHT22;5453;50.852;7.102;2023-08-20T04:19:37;21.20;99.90
10802;DHT22;5453;50.852;7.102;2023-08-20T04:22:09;21.20;99.90
10802;DHT22;5453;50.852;7.102;2023-08-20T04:24:42;21.20;99.90
10802;DHT22;5453;50.852;7.102;2023-08-20T04:27:17;21.10;99.90
10802;DHT22;5453;50.852;7.102;2023-08-20T04:29:50;21.20;99.90
10802;DHT22;5453;50.852;7.102;2023-08-20T04:32:24;21.10;99.90
10802;DHT22;5453;50.852;7.102;2023-08-20T04:34:57;21.10;99.90
10802;DHT22;5453;50.852;7.102;2023-08-20T04:37:33;21.10;99.90
10802;DHT22;5453;50.852;7.102;2023-08-20T04:40:07;21.10;99.90
10802;DHT22;5453;50.852;7.102;2023-08-20T04:42:40;21.10;99.90
10802;DHT22;5453;50.852;7.102;2023-08-20T04:45:12;21.10;99.90
10802;DHT22;5453;50.852;7.102;2023-08-20T04:47:46;21.00;99.90
10802;DHT22;5453;50.852;7.102;2023-08-20T04:50:21;20.90;99.90
10802;DHT22;5453;50.852;7.102;2023-08-20T04:52:54;21.00;99.90
10802;DHT22;5453;50.852;7.102;2023-08-20T04:55:30;21.00;99.90
10802;DHT22;5453;50.852;7.102;2023-08-20T04:58:03;21.00;99.90
10802;DHT22;5453;50.852;7.102;2023-08-20T05:00:42;20.90;99.90
10802;DHT22;5453;50.852;7.102;2023-08-20T05:03:22;20.90;99.90
10802;DHT22;5453;50.852;7.102;2023-08-20T05:05:55;20.90;99.90
10802;DHT22;5453;50.852;7.102;2023-08-20T05:08:27;20.90;99.90
10802;DHT22;5453;50.852;7.102;2023-08-20T05:10:59;20.90;99.90
10802;DHT22;5453;50.852;7.102;2023-08-20T05:13:32;21.00;99.90
10802;DHT22;5453;50.852;7.102;2023-08-20T05:16:04;21.00;99.90
10802;DHT22;5453;50.852;7.102;2023-08-20T05:18:38;21.10;99.90
10802;DHT22;5453;50.852;7.102;2023-08-20T05:21:11;21.10;99.90
10802;DHT22;5453;50.852;7.102;2023-08-20T05:23:44;21.10;99.90
10802;DHT22;5453;50.852;7.102;2023-08-20T05:26:16;21.20;99.90
10802;DHT22;5453;50.852;7.102;2023-08-20T05:28:49;21.30;99.90
10802;DHT22;5453;50.852;7.102;2023-08-20T05:31:24;21.30;99.90
10802;DHT22;5453;50.852;7.102;2023-08-20T05:33:58;21.40;99.90
10802;DHT22;5453;50.852;7.102;2023-08-20T05:36:31;21.60;99.90
10802;DHT22;5453;50.852;7.102;2023-08-20T05:39:03;21.70;99.90
10802;DHT22;5453;50.852;7.102;2023-08-20T05:41:40;21.80;99.90
10802;DHT22;5453;50.852;7.102;2023-08-20T05:44:12;21.80;99.90
10802;DHT22;5453;50.852;7.102;2023-08-20T05:46:45;21.90;99.90
10802;DHT22;5453;50.852;7.102;2023-08-20T05:49:19;21.90;99.90
10802;DHT22;5453;50.852;7.102;2023-08-20T05:51:52;22.00;99.90
10802;DHT22;5453;50.852;7.102;2023-08-20T05:54:24;22.20;99.90
10802;DHT22;5453;50.852;7.102;2023-08-20T05:56:59;22.40;99.90
10802;DHT22;5453;50.852;7.102;2023-08-20T05:59:35;22.60;99.90
10802;DHT22;5453;50.852;7.102;2023-08-20T06:02:08;22.90;99.90
10802;DHT22;5453;50.852;7.102;2023-08-20T06:04:41;23.10;99.90
10802;DHT22;5453;50.852;7.102;2023-08-20T06:07:14;23.30;99.90
10802;DHT22;5453;50.852;7.102;2023-08-20T06:09:46;23.50;99.90
10802;DHT22;5453;50.852;7.102;2023-08-20T06:12:20;23.80;99.90
10802;DHT22;5453;50.852;7.102;2023-08-20T06:14:53;23.90;99.90
10802;DHT22;5453;50.852;7.102;2023-08-20T06:17:25;24.10;99.90
10802;DHT22;5453;50.852;7.102;2023-08-20T06:19:59;24.30;99.90
10802;DHT22;5453;50.852;7.102;2023-08-20T06:22:31;24.50;99.90
10802;DHT22;5453;50.852;7.102;2023-08-20T06:25:05;24.70;99.90
10802;DHT22;5453;50.852;7.102;2023-08-20T06:27:41;24.70;99.90
10802;DHT22;5453;50.852;7.102;2023-08-20T06:30:13;24.80;99.90
10802;DHT22;5453;50.852;7.102;2023-08-20T06:32:46;24.90;99.90
10802;DHT22;5453;50.852;7.102;2023-08-20T06:35:20;24.80;99.90
10802;DHT22;5453;50.852;7.102;2023-08-20T06:37:52;24.90;99.90
10802;DHT22;5453;50.852;7.102;2023-08-20T06:40:24;25.00;99.90
10802;DHT22;5453;50.852;7.102;2023-08-20T06:42:57;25.10;99.90
10802;DHT22;5453;50.852;7.102;2023-08-20T06:45:29;25.30;99.90
10802;DHT22;5453;50.852;7.102;2023-08-20T06:48:02;25.50;99.90
10802;DHT22;5453;50.852;7.102;2023-08-20T06:50:37;25.60;99.90
10802;DHT22;5453;50.852;7.102;2023-08-20T06:53:10;25.80;99.90
10802;DHT22;5453;50.852;7.102;2023-08-20T06:55:42;25.90;99.90
10802;DHT22;5453;50.852;7.102;2023-08-20T06:58:14;26.00;99.90
10802;DHT22;5453;50.852;7.102;2023-08-20T07:00:47;26.20;99.90
10802;DHT22;5453;50.852;7.102;2023-08-20T07:03:20;26.30;99.90
10802;DHT22;5453;50.852;7.102;2023-08-20T07:05:53;26.50;99.90
10802;DHT22;5453;50.852;7.102;2023-08-20T07:08:26;26.80;99.90
10802;DHT22;5453;50.852;7.102;2023-08-20T07:10:58;26.90;99.90
10802;DHT22;5453;50.852;7.102;2023-08-20T07:13:31;27.00;99.90
10802;DHT22;5453;50.852;7.102;2023-08-20T07:16:04;27.00;99.90
10802;DHT22;5453;50.852;7.102;2023-08-20T07:18:36;27.10;99.90
10802;DHT22;5453;50.852;7.102;2023-08-20T07:21:10;27.20;99.90
10802;DHT22;5453;50.852;7.102;2023-08-20T07:23:45;27.20;99.90
10802;DHT22;5453;50.852;7.102;2023-08-20T07:26:18;27.30;99.90
10802;DHT22;5453;50.852;7.102;2023-08-20T07:28:50;27.40;99.90
10802;DHT22;5453;50.852;7.102;2023-08-20T07:31:29;27.60;99.90
10802;DHT22;5453;50.852;7.102;2023-08-20T07:34:05;27.80;99.90
10802;DHT22;5453;50.852;7.102;2023-08-20T07:36:39;28.00;99.90
10802;DHT22;5453;50.852;7.102;2023-08-20T07:39:11;28.20;99.90
10802;DHT22;5453;50.852;7.102;2023-08-20T07:41:45;28.40;99.90
10802;DHT22;5453;50.852;7.102;2023-08-20T07:44:17;28.40;99.90
10802;DHT22;5453;50.852;7.102;2023-08-20T07:46:50;28.50;99.90
10802;DHT22;5453;50.852;7.102;2023-08-20T07:49:22;28.40;99.90
10802;DHT22;5453;50.852;7.102;2023-08-20T07:51:59;28.30;99.90
10802;DHT22;5453;50.852;7.102;2023-08-20T07:54:31;28.20;99.90
10802;DHT22;5453;50.852;7.102;2023-08-20T07:57:04;28.10;99.90
10802;DHT22;5453;50.852;7.102;2023-08-20T07:59:37;28.10;99.90
10802;DHT22;5453;50.852;7.102;2023-08-20T08:02:09;28.10;99.90
10802;DHT22;5453;50.852;7.102;2023-08-20T08:04:42;28.10;99.90
10802;DHT22;5453;50.852;7.102;2023-08-20T08:07:16;28.20;99.90
10802;DHT22;5453;50.852;7.102;2023-08-20T08:09:48;28.20;99.90
10802;DHT22;5453;50.852;7.102;2023-08-20T08:12:21;28.30;99.90
10802;DHT22;5453;50.852;7.102;2023-08-20T08:14:53;28.30;99.90
10802;DHT22;5453;50.852;7.102;2023-08-20T08:17:26;28.40;99.90
10802;DHT22;5453;50.852;7.102;2023-08-20T08:20:01;28.60;99.90
10802;DHT22;5453;50.852;7.102;2023-08-20T08:22:35;28.90;99.90
10802;DHT22;5453;50.852;7.102;2023-08-20T08:25:08;29.10;99.90
10802;DHT22;5453;50.852;7.102;2023-08-20T08:27:40;29.40;99.90
10802;DHT22;5453;50.852;7.102;2023-08-20T08:30:12;29.60;99.90
10802;DHT22;5453;50.852;7.102;2023-08-20T08:32:45;29.90;99.90
10802;DHT22;5453;50.852;7.102;2023-08-20T08:35:18;30.40;99.90
10802;DHT22;5453;50.852;7.102;2023-08-20T08:37:53;31.00;99.90
10802;DHT22;5453;50.852;7.102;2023-08-20T08:40:28;31.80;99.90
10802;DHT22;5453;50.852;7.102;2023-08-20T08:43:02;32.40;98.30
10802;DHT22;5453;50.852;7.102;2023-08-20T08:45:35;32.90;97.00
10802;DHT22;5453;50.852;7.102;2023-08-20T08:48:07;33.50;95.90
10802;DHT22;5453;50.852;7.102;2023-08-20T08:50:43;34.00;94.90
10802;DHT22;5453;50.852;7.102;2023-08-20T08:53:18;34.40;94.20
10802;DHT22;5453;50.852;7.102;2023-08-20T08:55:50;34.40;93.00
10802;DHT22;5453;50.852;7.102;2023-08-20T08:58:23;34.20;92.50
10802;DHT22;5453;50.852;7.102;2023-08-20T09:00:55;34.30;92.20
10802;DHT22;5453;50.852;7.102;2023-08-20T09:03:28;34.50;91.40
10802;DHT22;5453;50.852;7.102;2023-08-20T09:06:01;34.60;90.90
10802;DHT22;5453;50.852;7.102;2023-08-20T09:08:35;34.40;90.60
10802;DHT22;5453;50.852;7.102;2023-08-20T09:11:08;34.50;90.20
10802;DHT22;5453;50.852;7.102;2023-08-20T09:13:41;34.70;87.70
10802;DHT22;5453;50.852;7.102;2023-08-20T09:16:14;34.80;85.60
10802;DHT22;5453;50.852;7.102;2023-08-20T09:18:47;34.70;84.00
10802;DHT22;5453;50.852;7.102;2023-08-20T09:21:19;34.40;81.10
10802;DHT22;5453;50.852;7.102;2023-08-20T09:24:00;34.00;81.40
10802;DHT22;5453;50.852;7.102;2023-08-20T09:26:33;33.70;81.60
10802;DHT22;5453;50.852;7.102;2023-08-20T09:29:06;33.40;83.20
10802;DHT22;5453;50.852;7.102;2023-08-20T09:31:39;33.20;83.40
10802;DHT22;5453;50.852;7.102;2023-08-20T09:34:13;32.70;83.00
10802;DHT22;5453;50.852;7.102;2023-08-20T09:36:46;32.50;84.80
10802;DHT22;5453;50.852;7.102;2023-08-20T09:39:20;32.30;86.20
10802;DHT22;5453;50.852;7.102;2023-08-20T09:41:52;32.10;84.90
10802;DHT22;5453;50.852;7.102;2023-08-20T09:44:26;31.90;85.60
10802;DHT22;5453;50.852;7.102;2023-08-20T09:47:05;31.60;86.10
10802;DHT22;5453;50.852;7.102;2023-08-20T09:49:39;31.20;87.60
10802;DHT22;5453;50.852;7.102;2023-08-20T09:52:17;31.00;90.00
10802;DHT22;5453;50.852;7.102;2023-08-20T09:55:00;30.90;91.20
10802;DHT22;5453;50.852;7.102;2023-08-20T09:57:37;30.90;91.80
10802;DHT22;5453;50.852;7.102;2023-08-20T10:00:11;30.90;91.80
10802;DHT22;5453;50.852;7.102;2023-08-20T10:02:46;31.00;91.50
10802;DHT22;5453;50.852;7.102;2023-08-20T10:05:20;31.00;91.20
10802;DHT22;5453;50.852;7.102;2023-08-20T10:10:29;31.30;91.50
10802;DHT22;5453;50.852;7.102;2023-08-20T10:13:02;31.40;91.30
10802;DHT22;5453;50.852;7.102;2023-08-20T10:15:35;31.60;91.10
10802;DHT22;5453;50.852;7.102;2023-08-20T10:18:10;31.70;91.20
10802;DHT22;5453;50.852;7.102;2023-08-20T10:20:42;31.80;91.20
10802;DHT22;5453;50.852;7.102;2023-08-20T10:23:14;31.80;91.00
10802;DHT22;5453;50.852;7.102;2023-08-20T10:25:49;31.90;91.80
10802;DHT22;5453;50.852;7.102;2023-08-20T10:28:25;31.80;91.70
10802;DHT22;5453;50.852;7.102;2023-08-20T10:31:07;31.80;92.10
10802;DHT22;5453;50.852;7.102;2023-08-20T10:33:49;31.70;91.90
10802;DHT22;5453;50.852;7.102;2023-08-20T10:36:23;31.50;91.80
10802;DHT22;5453;50.852;7.102;2023-08-20T10:39:04;31.20;92.00
10802;DHT22;5453;50.852;7.102;2023-08-20T10:41:38;31.20;92.40
10802;DHT22;5453;50.852;7.102;2023-08-20T10:44:11;31.10;92.80
10802;DHT22;5453;50.852;7.102;2023-08-20T10:46:50;31.20;92.60
10802;DHT22;5453;50.852;7.102;2023-08-20T10:49:22;31.40;92.40
10802;DHT22;5453;50.852;7.102;2023-08-20T10:51:55;31.60;92.10
10802;DHT22;5453;50.852;7.102;2023-08-20T10:54:28;31.70;91.40
10802;DHT22;5453;50.852;7.102;2023-08-20T10:57:02;31.60;91.10
10802;DHT22;5453;50.852;7.102;2023-08-20T10:59:40;31.60;91.20
10802;DHT22;5453;50.852;7.102;2023-08-20T11:02:14;31.70;91.40
10802;DHT22;5453;50.852;7.102;2023-08-20T11:04:47;31.80;91.70
10802;DHT22;5453;50.852;7.102;2023-08-20T11:07:20;31.80;91.50
10802;DHT22;5453;50.852;7.102;2023-08-20T11:09:52;31.60;91.50
10802;DHT22;5453;50.852;7.102;2023-08-20T11:12:29;31.50;91.70
10802;DHT22;5453;50.852;7.102;2023-08-20T11:15:02;31.40;91.90
10802;DHT22;5453;50.852;7.102;2023-08-20T11:17:35;31.20;91.50
10802;DHT22;5453;50.852;7.102;2023-08-20T11:20:07;31.10;91.20
10802;DHT22;5453;50.852;7.102;2023-08-20T11:22:41;31.00;91.30
10802;DHT22;5453;50.852;7.102;2023-08-20T11:25:13;31.00;91.30
10802;DHT22;5453;50.852;7.102;2023-08-20T11:27:47;31.10;91.60
10802;DHT22;5453;50.852;7.102;2023-08-20T11:30:20;31.00;91.40
10802;DHT22;5453;50.852;7.102;2023-08-20T11:32:53;31.10;91.60
10802;DHT22;5453;50.852;7.102;2023-08-20T11:35:26;31.10;91.20
10802;DHT22;5453;50.852;7.102;2023-08-20T11:37:58;31.10;91.00
10802;DHT22;5453;50.852;7.102;2023-08-20T11:40:31;31.20;91.10
10802;DHT22;5453;50.852;7.102;2023-08-20T11:43:05;31.30;91.00
10802;DHT22;5453;50.852;7.102;2023-08-20T11:45:46;31.40;91.00
10802;DHT22;5453;50.852;7.102;2023-08-20T11:48:20;31.40;90.50
10802;DHT22;5453;50.852;7.102;2023-08-20T11:50:56;31.50;90.80
10802;DHT22;5453;50.852;7.102;2023-08-20T11:53:29;31.60;90.90
10802;DHT22;5453;50.852;7.102;2023-08-20T11:56:01;31.70;90.50
10802;DHT22;5453;50.852;7.102;2023-08-20T11:58:35;31.80;89.80
10802;DHT22;5453;50.852;7.102;2023-08-20T12:01:08;31.90;89.80
10802;DHT22;5453;50.852;7.102;2023-08-20T12:03:40;32.00;88.40
10802;DHT22;5453;50.852;7.102;2023-08-20T12:06:18;32.10;87.90
10802;DHT22;5453;50.852;7.102;2023-08-20T12:08:51;32.10;88.50
10802;DHT22;5453;50.852;7.102;2023-08-20T12:11:24;32.00;88.70
10802;DHT22;5453;50.852;7.102;2023-08-20T12:13:58;32.00;88.50
10802;DHT22;5453;50.852;7.102;2023-08-20T12:16:31;31.90;88.60
10802;DHT22;5453;50.852;7.102;2023-08-20T12:19:04;31.80;88.60
10802;DHT22;5453;50.852;7.102;2023-08-20T12:21:36;31.90;89.60
10802;DHT22;5453;50.852;7.102;2023-08-20T12:24:09;32.00;90.00
10802;DHT22;5453;50.852;7.102;2023-08-20T12:26:41;32.00;89.60
10802;DHT22;5453;50.852;7.102;2023-08-20T12:29:16;32.00;89.20
10802;DHT22;5453;50.852;7.102;2023-08-20T12:31:48;32.10;89.30
10802;DHT22;5453;50.852;7.102;2023-08-20T12:34:20;32.00;87.80
10802;DHT22;5453;50.852;7.102;2023-08-20T12:36:54;32.00;86.80
10802;DHT22;5453;50.852;7.102;2023-08-20T12:39:26;31.90;86.70
10802;DHT22;5453;50.852;7.102;2023-08-20T12:41:59;31.90;87.40
10802;DHT22;5453;50.852;7.102;2023-08-20T12:44:32;31.90;87.40
10802;DHT22;5453;50.852;7.102;2023-08-20T12:47:05;32.00;87.80
10802;DHT22;5453;50.852;7.102;2023-08-20T12:49:37;31.90;87.10
10802;DHT22;5453;50.852;7.102;2023-08-20T12:52:10;31.90;87.40
10802;DHT22;5453;50.852;7.102;2023-08-20T12:54:42;31.90;87.40
10802;DHT22;5453;50.852;7.102;2023-08-20T12:57:14;31.90;87.50
10802;DHT22;5453;50.852;7.102;2023-08-20T12:59:48;32.00;87.30
10802;DHT22;5453;50.852;7.102;2023-08-20T13:02:20;32.00;86.90
10802;DHT22;5453;50.852;7.102;2023-08-20T13:04:53;32.00;87.10
10802;DHT22;5453;50.852;7.102;2023-08-20T13:07:26;32.00;87.00
10802;DHT22;5453;50.852;7.102;2023-08-20T13:10:00;32.10;87.30
10802;DHT22;5453;50.852;7.102;2023-08-20T13:12:34;32.10;86.90
10802;DHT22;5453;50.852;7.102;2023-08-20T13:15:09;32.10;85.60
10802;DHT22;5453;50.852;7.102;2023-08-20T13:17:42;32.10;83.90
10802;DHT22;5453;50.852;7.102;2023-08-20T13:20:15;32.00;82.60
10802;DHT22;5453;50.852;7.102;2023-08-20T13:22:52;32.00;82.70
10802;DHT22;5453;50.852;7.102;2023-08-20T13:25:24;32.00;84.70
10802;DHT22;5453;50.852;7.102;2023-08-20T13:27:56;32.00;85.30
10802;DHT22;5453;50.852;7.102;2023-08-20T13:30:30;32.00;85.80
10802;DHT22;5453;50.852;7.102;2023-08-20T13:33:04;32.00;85.90
10802;DHT22;5453;50.852;7.102;2023-08-20T13:35:37;32.10;86.00
10802;DHT22;5453;50.852;7.102;2023-08-20T13:38:10;32.10;85.10
10802;DHT22;5453;50.852;7.102;2023-08-20T13:40:42;32.20;85.40
10802;DHT22;5453;50.852;7.102;2023-08-20T13:43:15;32.20;85.40
10802;DHT22;5453;50.852;7.102;2023-08-20T13:45:49;32.20;85.30
10802;DHT22;5453;50.852;7.102;2023-08-20T13:48:21;32.20;85.30
10802;DHT22;5453;50.852;7.102;2023-08-20T13:50:53;32.10;83.90
10802;DHT22;5453;50.852;7.102;2023-08-20T13:53:26;32.00;84.20
10802;DHT22;5453;50.852;7.102;2023-08-20T13:55:58;31.80;84.40
10802;DHT22;5453;50.852;7.102;2023-08-20T13:58:30;31.60;84.90
10802;DHT22;5453;50.852;7.102;2023-08-20T14:01:04;31.50;85.60
10802;DHT22;5453;50.852;7.102;2023-08-20T14:03:37;31.50;86.40
10802;DHT22;5453;50.852;7.102;2023-08-20T14:06:10;31.40;86.50
10802;DHT22;5453;50.852;7.102;2023-08-20T14:08:43;31.20;86.50
10802;DHT22;5453;50.852;7.102;2023-08-20T14:11:15;31.10;86.50
10802;DHT22;5453;50.852;7.102;2023-08-20T14:13:48;31.10;86.60
10802;DHT22;5453;50.852;7.102;2023-08-20T14:16:21;31.00;87.00
10802;DHT22;5453;50.852;7.102;2023-08-20T14:18:54;31.00;87.60
10802;DHT22;5453;50.852;7.102;2023-08-20T14:21:26;31.10;87.80
10802;DHT22;5453;50.852;7.102;2023-08-20T14:23:58;31.20;87.40
10802;DHT22;5453;50.852;7.102;2023-08-20T14:26:31;31.20;87.30
10802;DHT22;5453;50.852;7.102;2023-08-20T14:29:03;31.20;85.90
10802;DHT22;5453;50.852;7.102;2023-08-20T14:31:37;31.30;85.50
10802;DHT22;5453;50.852;7.102;2023-08-20T14:34:09;31.30;85.90
10802;DHT22;5453;50.852;7.102;2023-08-20T14:36:45;31.30;86.70
10802;DHT22;5453;50.852;7.102;2023-08-20T14:39:17;31.40;87.00
10802;DHT22;5453;50.852;7.102;2023-08-20T14:41:50;31.40;86.90
10802;DHT22;5453;50.852;7.102;2023-08-20T14:44:22;31.40;86.90
10802;DHT22;5453;50.852;7.102;2023-08-20T14:46:56;31.40;86.60
10802;DHT22;5453;50.852;7.102;2023-08-20T14:49:29;31.40;87.00
10802;DHT22;5453;50.852;7.102;2023-08-20T14:52:01;31.40;86.60
10802;DHT22;5453;50.852;7.102;2023-08-20T14:54:38;31.40;86.50
10802;DHT22;5453;50.852;7.102;2023-08-20T14:57:12;31.30;87.00
10802;DHT22;5453;50.852;7.102;2023-08-20T14:59:46;31.20;86.80
10802;DHT22;5453;50.852;7.102;2023-08-20T15:02:19;31.10;86.70
10802;DHT22;5453;50.852;7.102;2023-08-20T15:04:55;31.10;87.10
10802;DHT22;5453;50.852;7.102;2023-08-20T15:07:27;31.00;87.30
10802;DHT22;5453;50.852;7.102;2023-08-20T15:09:59;30.90;87.60
10802;DHT22;5453;50.852;7.102;2023-08-20T15:12:33;30.70;87.90
10802;DHT22;5453;50.852;7.102;2023-08-20T15:15:06;30.60;87.80
10802;DHT22;5453;50.852;7.102;2023-08-20T15:17:40;30.50;87.90
10802;DHT22;5453;50.852;7.102;2023-08-20T15:20:13;30.30;88.00
10802;DHT22;5453;50.852;7.102;2023-08-20T15:22:48;30.20;88.20
10802;DHT22;5453;50.852;7.102;2023-08-20T15:25:20;30.20;88.60
10802;DHT22;5453;50.852;7.102;2023-08-20T15:27:53;30.10;88.80
10802;DHT22;5453;50.852;7.102;2023-08-20T15:30:25;30.10;89.40
10802;DHT22;5453;50.852;7.102;2023-08-20T15:32:59;30.10;89.50
10802;DHT22;5453;50.852;7.102;2023-08-20T15:35:31;30.10;88.80
10802;DHT22;5453;50.852;7.102;2023-08-20T15:38:04;30.10;89.30
10802;DHT22;5453;50.852;7.102;2023-08-20T15:40:38;30.10;89.50
10802;DHT22;5453;50.852;7.102;2023-08-20T15:43:10;30.10;89.60
10802;DHT22;5453;50.852;7.102;2023-08-20T15:45:42;30.10;89.20
10802;DHT22;5453;50.852;7.102;2023-08-20T15:48:16;30.00;89.10
10802;DHT22;5453;50.852;7.102;2023-08-20T15:50:48;29.90;89.20
10802;DHT22;5453;50.852;7.102;2023-08-20T15:53:21;29.70;89.20
10802;DHT22;5453;50.852;7.102;2023-08-20T15:55:53;29.60;89.60
10802;DHT22;5453;50.852;7.102;2023-08-20T15:58:25;29.50;90.00
10802;DHT22;5453;50.852;7.102;2023-08-20T16:00:58;29.40;90.30
10802;DHT22;5453;50.852;7.102;2023-08-20T16:03:32;29.30;90.40
10802;DHT22;5453;50.852;7.102;2023-08-20T16:06:04;29.20;90.50
10802;DHT22;5453;50.852;7.102;2023-08-20T16:08:37;29.20;90.60
10802;DHT22;5453;50.852;7.102;2023-08-20T16:11:09;29.10;90.80
10802;DHT22;5453;50.852;7.102;2023-08-20T16:13:42;29.10;91.00
10802;DHT22;5453;50.852;7.102;2023-08-20T16:16:16;28.90;91.00
10802;DHT22;5453;50.852;7.102;2023-08-20T16:18:50;28.80;91.10
10802;DHT22;5453;50.852;7.102;2023-08-20T16:21:23;28.80;91.20
10802;DHT22;5453;50.852;7.102;2023-08-20T16:23:55;28.80;91.30
10802;DHT22;5453;50.852;7.102;2023-08-20T16:26:27;28.70;91.40